Dades meteomassalio
Diari Summary for Gener 18, 2017 Units:  Metric    English   Both
« Previous Day
Next Day »
Diari Semanal Mensual Anual Personalitzat
  Maxima: Minima: Mijana:
Temperatura: 3.6 °C -3.3 °C -0.3 °C
Rosada: -5.4 °C -11.4 °C -8.1 °C
Humitat: 80 % 41 % 57 %
Velocitat del vent: 31.5 km/h 0.0 km/h 15.1 km/h
Racha vent: 31.5 km/h - -
Vent:- - West
Pressio: 1027.3 hPa 1022.2 hPa -
Pluja: 0.0 mm    
Historical Graphs
 
 
Tabular Data for Gener 18, 2017
Time Temperature Dew Point Pressure Wind Wind Speed Wind Gust Humidity Rainfall Rate (Hourly) solar Conditions
00:02 -0.2 °C -7.7 °C 1022.2 hPa West 20.4 km/h 20.4 km/h 57 % 0.0 mm 0.0 W/m2 CLR
00:07 -0.2 °C -7.7 °C 1022.2 hPa West 27.8 km/h 27.8 km/h 57 % 0.0 mm 0.0 W/m2 CLR
00:12 -0.2 °C -7.7 °C 1022.2 hPa West 22.2 km/h 22.2 km/h 57 % 0.0 mm 0.0 W/m2 CLR
00:17 -0.2 °C -7.9 °C 1022.2 hPa West 18.5 km/h 18.5 km/h 56 % 0.0 mm 0.0 W/m2 CLR
00:22 -0.2 °C -7.9 °C 1022.2 hPa West 24.1 km/h 24.1 km/h 56 % 0.0 mm 0.0 W/m2 CLR
00:27 -0.3 °C -8.0 °C 1022.2 hPa West 27.8 km/h 27.8 km/h 56 % 0.0 mm 0.0 W/m2 CLR
00:32 -0.2 °C -7.9 °C 1022.2 hPa West 25.9 km/h 25.9 km/h 56 % 0.0 mm 0.0 W/m2 CLR
00:37 -0.3 °C -8.0 °C 1022.2 hPa West 24.1 km/h 24.1 km/h 56 % 0.0 mm 0.0 W/m2 CLR
00:42 -0.3 °C -8.1 °C 1022.2 hPa West 18.5 km/h 18.5 km/h 56 % 0.0 mm 0.0 W/m2 CLR
00:47 -0.4 °C -8.1 °C 1022.2 hPa West 25.7 km/h 25.7 km/h 56 % 0.0 mm 0.0 W/m2 CLR
00:52 -0.4 °C -7.9 °C 1022.6 hPa West 24.1 km/h 24.1 km/h 57 % 0.0 mm 0.0 W/m2 CLR
00:57 -0.5 °C -8.0 °C 1022.6 hPa West 22.2 km/h 22.2 km/h 57 % 0.0 mm 0.0 W/m2 CLR
01:02 -0.6 °C -8.1 °C 1022.6 hPa West 20.4 km/h 20.4 km/h 57 % 0.0 mm 0.0 W/m2 CLR
01:07 -0.6 °C -8.1 °C 1022.6 hPa West 18.5 km/h 18.5 km/h 57 % 0.0 mm 0.0 W/m2 CLR
01:12 -0.7 °C -8.2 °C 1022.2 hPa West 18.5 km/h 18.5 km/h 57 % 0.0 mm 0.0 W/m2 CLR
01:17 -0.7 °C -8.2 °C 1022.2 hPa West 16.7 km/h 16.7 km/h 57 % 0.0 mm 0.0 W/m2 CLR
01:22 -0.8 °C -8.3 °C 1022.2 hPa West 18.5 km/h 18.5 km/h 57 % 0.0 mm 0.0 W/m2 CLR
01:27 -0.8 °C -8.1 °C 1022.2 hPa West 13.0 km/h 13.0 km/h 58 % 0.0 mm 0.0 W/m2 CLR
01:32 -0.9 °C -8.1 °C 1022.2 hPa West 24.1 km/h 24.1 km/h 58 % 0.0 mm 0.0 W/m2 CLR
01:37 -0.9 °C -8.1 °C 1022.2 hPa West 25.9 km/h 25.9 km/h 58 % 0.0 mm 0.0 W/m2 CLR
01:42 -0.9 °C -8.2 °C 1022.2 hPa West 17.7 km/h 17.7 km/h 58 % 0.0 mm 0.0 W/m2 CLR
01:47 -1.0 °C -8.2 °C 1022.2 hPa West 18.5 km/h 18.5 km/h 58 % 0.0 mm 0.0 W/m2 CLR
01:52 -1.0 °C -8.2 °C 1022.2 hPa West 20.4 km/h 20.4 km/h 58 % 0.0 mm 0.0 W/m2 CLR
01:57 -1.0 °C -8.2 °C 1022.2 hPa West 22.5 km/h 22.5 km/h 58 % 0.0 mm 0.0 W/m2 CLR
02:02 -1.1 °C -8.1 °C 1022.6 hPa West 20.4 km/h 20.4 km/h 59 % 0.0 mm 0.0 W/m2 CLR
02:07 -1.1 °C -8.3 °C 1022.6 hPa WNW 29.6 km/h 29.6 km/h 58 % 0.0 mm 0.0 W/m2 CLR
02:12 -1.1 °C -8.3 °C 1022.6 hPa WNW 25.9 km/h 25.9 km/h 58 % 0.0 mm 0.0 W/m2 CLR
02:17 -1.1 °C -8.3 °C 1022.6 hPa West 25.9 km/h 25.9 km/h 58 % 0.0 mm 0.0 W/m2 CLR
02:22 -1.1 °C -8.3 °C 1022.6 hPa West 22.5 km/h 22.5 km/h 58 % 0.0 mm 0.0 W/m2 CLR
02:27 -1.1 °C -8.3 °C 1022.6 hPa West 19.3 km/h 19.3 km/h 58 % 0.0 mm 0.0 W/m2 CLR
02:32 -1.1 °C -8.6 °C 1022.9 hPa West 24.1 km/h 24.1 km/h 57 % 0.0 mm 0.0 W/m2 CLR
02:37 -1.1 °C -8.6 °C 1022.9 hPa West 25.9 km/h 25.9 km/h 57 % 0.0 mm 0.0 W/m2 CLR
02:42 -1.2 °C -8.6 °C 1022.9 hPa West 24.1 km/h 24.1 km/h 57 % 0.0 mm 0.0 W/m2 CLR
02:47 -1.2 °C -8.6 °C 1022.9 hPa West 18.5 km/h 18.5 km/h 57 % 0.0 mm 0.0 W/m2 CLR
02:52 -1.2 °C -8.7 °C 1022.9 hPa West 27.8 km/h 27.8 km/h 57 % 0.0 mm 0.0 W/m2 CLR
02:57 -1.3 °C -8.7 °C 1023.2 hPa WNW 20.4 km/h 20.4 km/h 57 % 0.0 mm 0.0 W/m2 CLR
03:02 -1.3 °C -8.8 °C 1023.2 hPa West 18.5 km/h 18.5 km/h 57 % 0.0 mm 0.0 W/m2 CLR
03:07 -1.4 °C -8.8 °C 1023.2 hPa West 16.7 km/h 16.7 km/h 57 % 0.0 mm 0.0 W/m2 CLR
03:12 -1.3 °C -8.7 °C 1023.2 hPa West 20.4 km/h 20.4 km/h 57 % 0.0 mm 0.0 W/m2 CLR
03:17 -1.3 °C -8.8 °C 1023.2 hPa West 20.9 km/h 20.9 km/h 57 % 0.0 mm 0.0 W/m2 CLR
03:22 -1.3 °C -9.0 °C 1023.2 hPa West 18.5 km/h 18.5 km/h 56 % 0.0 mm 0.0 W/m2 CLR
03:27 -1.4 °C -8.8 °C 1023.2 hPa West 18.5 km/h 18.5 km/h 57 % 0.0 mm 0.0 W/m2 CLR
03:32 -1.4 °C -8.9 °C 1023.6 hPa West 20.9 km/h 20.9 km/h 57 % 0.0 mm 0.0 W/m2 CLR
03:37 -1.5 °C -8.9 °C 1023.6 hPa West 18.5 km/h 18.5 km/h 57 % 0.0 mm 0.0 W/m2 CLR
03:42 -1.6 °C -9.0 °C 1023.6 hPa West 14.8 km/h 14.8 km/h 57 % 0.0 mm 0.0 W/m2 CLR
03:47 -1.6 °C -9.1 °C 1023.6 hPa West 14.8 km/h 14.8 km/h 57 % 0.0 mm 0.0 W/m2 CLR
03:52 -1.7 °C -9.1 °C 1023.9 hPa West 16.7 km/h 16.7 km/h 57 % 0.0 mm 0.0 W/m2 CLR
03:57 -1.7 °C -9.1 °C 1023.9 hPa West 16.1 km/h 16.1 km/h 57 % 0.0 mm 0.0 W/m2 CLR
04:03 -1.7 °C -9.1 °C 1023.9 hPa West 18.5 km/h 18.5 km/h 57 % 0.0 mm 0.0 W/m2 CLR
04:08 -1.8 °C -9.2 °C 1023.9 hPa West 9.7 km/h 9.7 km/h 57 % 0.0 mm 0.0 W/m2 CLR
04:13 -1.8 °C -9.2 °C 1023.9 hPa West 14.8 km/h 14.8 km/h 57 % 0.0 mm 0.0 W/m2 CLR
04:18 -1.8 °C -9.0 °C 1023.9 hPa West 11.3 km/h 11.3 km/h 58 % 0.0 mm 0.0 W/m2 CLR
04:23 -1.9 °C -9.1 °C 1023.9 hPa West 14.8 km/h 14.8 km/h 58 % 0.0 mm 0.0 W/m2 CLR
04:28 -1.8 °C -9.2 °C 1023.9 hPa West 20.4 km/h 20.4 km/h 57 % 0.0 mm 0.0 W/m2 CLR
04:33 -1.9 °C -9.3 °C 1023.9 hPa West 18.5 km/h 18.5 km/h 57 % 0.0 mm 0.0 W/m2 CLR
04:38 -1.9 °C -9.3 °C 1023.9 hPa West 14.8 km/h 14.8 km/h 57 % 0.0 mm 0.0 W/m2 CLR
04:43 -1.9 °C -9.3 °C 1023.9 hPa West 18.5 km/h 18.5 km/h 57 % 0.0 mm 0.0 W/m2 CLR
04:48 -2.0 °C -9.2 °C 1023.9 hPa WSW 8.0 km/h 8.0 km/h 58 % 0.0 mm 0.0 W/m2 CLR
04:53 -2.2 °C -9.4 °C 1023.9 hPa WSW 11.1 km/h 11.1 km/h 58 % 0.0 mm 0.0 W/m2 CLR
04:58 -2.3 °C -9.3 °C 1023.9 hPa WSW 9.3 km/h 9.3 km/h 59 % 0.0 mm 0.0 W/m2 CLR
05:03 -2.4 °C -9.3 °C 1023.9 hPa WSW 14.8 km/h 14.8 km/h 59 % 0.0 mm 0.0 W/m2 CLR
05:08 -2.4 °C -9.4 °C 1023.9 hPa WSW 11.3 km/h 11.3 km/h 59 % 0.0 mm 0.0 W/m2 CLR
05:13 -2.5 °C -9.4 °C 1023.9 hPa WSW 11.1 km/h 11.1 km/h 59 % 0.0 mm 0.0 W/m2 CLR
05:18 -2.6 °C -9.3 °C 1023.9 hPa WSW 9.3 km/h 9.3 km/h 60 % 0.0 mm 0.0 W/m2 CLR
05:23 -2.6 °C -9.3 °C 1023.9 hPa WSW 9.3 km/h 9.3 km/h 60 % 0.0 mm 0.0 W/m2 CLR
05:28 -2.6 °C -9.3 °C 1023.9 hPa WSW 11.1 km/h 11.1 km/h 60 % 0.0 mm 0.0 W/m2 CLR
05:29 -2.6 °C -9.3 °C 1023.9 hPa WSW 13.0 km/h 13.0 km/h 60 % 0.0 mm 0.0 W/m2 CLR
05:34 -2.6 °C -9.3 °C 1023.9 hPa WSW 13.0 km/h 13.0 km/h 60 % 0.0 mm 0.0 W/m2 CLR
05:39 -2.6 °C -9.3 °C 1024.3 hPa WSW 11.1 km/h 11.1 km/h 60 % 0.0 mm 0.0 W/m2 CLR
05:40 -2.7 °C -9.4 °C 1023.9 hPa WSW 11.3 km/h 11.3 km/h 60 % 0.0 mm 0.0 W/m2 CLR
05:45 -2.7 °C -9.4 °C 1024.3 hPa WSW 13.0 km/h 13.0 km/h 60 % 0.0 mm 0.0 W/m2 CLR
05:50 -2.7 °C -9.4 °C 1023.9 hPa WSW 18.5 km/h 18.5 km/h 60 % 0.0 mm 0.0 W/m2 CLR
05:55 -2.7 °C -9.4 °C 1023.9 hPa WSW 16.7 km/h 16.7 km/h 60 % 0.0 mm 0.0 W/m2 CLR
06:00 -2.7 °C -9.6 °C 1024.3 hPa WSW 14.8 km/h 14.8 km/h 59 % 0.0 mm 0.0 W/m2 CLR
06:05 -2.7 °C -9.6 °C 1024.3 hPa WSW 14.8 km/h 14.8 km/h 59 % 0.0 mm 0.0 W/m2 CLR
06:11 -2.7 °C -9.6 °C 1024.3 hPa WSW 16.7 km/h 16.7 km/h 59 % 0.0 mm 0.0 W/m2 CLR
06:16 -2.7 °C -9.6 °C 1023.9 hPa WSW 14.8 km/h 14.8 km/h 59 % 0.0 mm 0.0 W/m2 CLR
06:21 -2.7 °C -9.8 °C 1024.3 hPa WSW 16.7 km/h 16.7 km/h 58 % 0.0 mm 0.0 W/m2 CLR
06:26 -2.6 °C -9.7 °C 1024.3 hPa WSW 16.7 km/h 16.7 km/h 58 % 0.0 mm 0.0 W/m2 CLR
06:31 -2.7 °C -9.8 °C 1024.3 hPa WSW 14.8 km/h 14.8 km/h 58 % 0.0 mm 0.0 W/m2 CLR
06:36 -2.7 °C -9.8 °C 1024.3 hPa WSW 16.7 km/h 16.7 km/h 58 % 0.0 mm 0.0 W/m2 CLR
06:41 -2.7 °C -9.8 °C 1024.3 hPa WSW 14.8 km/h 14.8 km/h 58 % 0.0 mm 0.0 W/m2 CLR
06:46 -2.7 °C -9.8 °C 1024.3 hPa WSW 14.8 km/h 14.8 km/h 58 % 0.0 mm 0.0 W/m2 CLR
06:51 -2.8 °C -9.9 °C 1024.3 hPa WSW 16.7 km/h 16.7 km/h 58 % 0.0 mm 0.0 W/m2 CLR
06:56 -2.8 °C -9.9 °C 1024.3 hPa WSW 16.7 km/h 16.7 km/h 58 % 0.0 mm 0.0 W/m2 CLR
07:01 -2.8 °C -9.9 °C 1024.3 hPa WSW 14.8 km/h 14.8 km/h 58 % 0.0 mm 0.0 W/m2 CLR
07:06 -2.9 °C -10.0 °C 1024.6 hPa WSW 13.0 km/h 13.0 km/h 58 % 0.0 mm 0.0 W/m2 CLR
07:11 -2.8 °C -9.9 °C 1024.6 hPa WSW 13.0 km/h 13.0 km/h 58 % 0.0 mm 0.0 W/m2 CLR
07:16 -2.9 °C -10.0 °C 1024.6 hPa WSW 14.8 km/h 14.8 km/h 58 % 0.0 mm 0.0 W/m2 CLR
07:21 -2.9 °C -10.0 °C 1024.6 hPa WSW 13.0 km/h 13.0 km/h 58 % 0.0 mm 0.0 W/m2 CLR
07:26 -2.9 °C -10.3 °C 1024.6 hPa WSW 11.3 km/h 11.3 km/h 57 % 0.0 mm 0.0 W/m2 CLR
07:31 -2.9 °C -10.2 °C 1024.6 hPa WSW 11.1 km/h 11.1 km/h 57 % 0.0 mm 0.0 W/m2 CLR
07:36 -2.9 °C -10.3 °C 1024.6 hPa WSW 11.1 km/h 11.1 km/h 57 % 0.0 mm 0.0 W/m2 CLR
07:41 -3.0 °C -10.3 °C 1024.6 hPa WSW 13.0 km/h 13.0 km/h 57 % 0.0 mm 0.0 W/m2 CLR
07:46 -2.9 °C -10.3 °C 1024.9 hPa WSW 12.9 km/h 12.9 km/h 57 % 0.0 mm 0.0 W/m2 CLR
07:51 -3.0 °C -10.3 °C 1024.9 hPa WSW 9.3 km/h 9.3 km/h 57 % 0.0 mm 0.0 W/m2 CLR
07:56 -3.1 °C -10.4 °C 1024.9 hPa WSW 11.1 km/h 11.1 km/h 57 % 0.0 mm 0.0 W/m2 CLR
08:01 -3.1 °C -10.4 °C 1024.9 hPa WSW 9.7 km/h 9.7 km/h 57 % 0.0 mm 0.0 W/m2 CLR
08:06 -3.2 °C -10.5 °C 1024.9 hPa WSW 9.7 km/h 9.7 km/h 57 % 0.0 mm 0.0 W/m2 CLR
08:11 -3.2 °C -10.6 °C 1025.3 hPa WSW 11.3 km/h 11.3 km/h 57 % 0.0 mm 0.0 W/m2 CLR
08:16 -3.3 °C -10.6 °C 1025.3 hPa SW 9.7 km/h 9.7 km/h 57 % 0.0 mm 0.0 W/m2 CLR
08:21 -3.3 °C -10.6 °C 1025.3 hPa SW 11.1 km/h 11.1 km/h 57 % 0.0 mm 0.0 W/m2 OVC
08:26 -3.2 °C -10.6 °C 1025.3 hPa WSW 13.0 km/h 13.0 km/h 57 % 0.0 mm 5.0 W/m2 BKN
08:31 -3.2 °C -10.7 °C 1025.3 hPa WSW 9.3 km/h 9.3 km/h 56 % 0.0 mm 7.0 W/m2 BKN
08:36 -3.1 °C -10.7 °C 1025.3 hPa WSW 14.8 km/h 14.8 km/h 56 % 0.0 mm 9.0 W/m2 BKN
08:41 -3.0 °C -10.8 °C 1025.3 hPa WSW 13.0 km/h 13.0 km/h 55 % 0.0 mm 12.0 W/m2 BKN
08:46 -2.9 °C -10.7 °C 1025.3 hPa WSW 13.0 km/h 13.0 km/h 55 % 0.0 mm 16.0 W/m2 BKN
08:51 -2.8 °C -10.8 °C 1025.3 hPa WSW 13.0 km/h 13.0 km/h 54 % 0.0 mm 18.0 W/m2 BKN
08:56 -2.7 °C -10.8 °C 1025.3 hPa WSW 13.0 km/h 13.0 km/h 54 % 0.0 mm 21.0 W/m2 BKN
09:01 -2.6 °C -10.7 °C 1025.3 hPa WSW 11.1 km/h 11.1 km/h 54 % 0.0 mm 35.0 W/m2 BKN
09:06 -2.4 °C -10.5 °C 1025.3 hPa WSW 11.1 km/h 11.1 km/h 54 % 0.0 mm 47.0 W/m2 BKN
09:11 -2.3 °C -10.4 °C 1025.3 hPa WSW 11.1 km/h 11.1 km/h 54 % 0.0 mm 53.0 W/m2 BKN
09:16 -2.2 °C -10.5 °C 1025.3 hPa WSW 13.0 km/h 13.0 km/h 53 % 0.0 mm 72.0 W/m2 BKN
09:21 -1.9 °C -10.5 °C 1025.3 hPa WSW 11.1 km/h 11.1 km/h 52 % 0.0 mm 88.0 W/m2 BKN
09:26 -1.7 °C -10.5 °C 1025.3 hPa WSW 14.8 km/h 14.8 km/h 51 % 0.0 mm 98.0 W/m2 BKN
09:31 -1.4 °C -10.5 °C 1025.3 hPa WSW 13.0 km/h 13.0 km/h 50 % 0.0 mm 113.0 W/m2 BKN
09:36 -1.1 °C -10.7 °C 1025.3 hPa West 14.8 km/h 14.8 km/h 48 % 0.0 mm 125.0 W/m2 BKN
09:42 -0.9 °C -10.8 °C 1025.3 hPa West 13.0 km/h 13.0 km/h 47 % 0.0 mm 141.0 W/m2 BKN
09:47 -0.7 °C -10.9 °C 1025.3 hPa West 16.1 km/h 16.1 km/h 46 % 0.0 mm 155.0 W/m2 BKN
09:52 -0.6 °C -10.8 °C 1025.6 hPa West 14.8 km/h 14.8 km/h 46 % 0.0 mm 169.0 W/m2 SCT
09:57 -0.5 °C -11.0 °C 1025.6 hPa West 14.8 km/h 14.8 km/h 45 % 0.0 mm 181.0 W/m2 SCT
10:02 -0.4 °C -10.9 °C 1025.6 hPa West 14.8 km/h 14.8 km/h 45 % 0.0 mm 174.0 W/m2 BKN
10:07 -0.3 °C -11.1 °C 1025.6 hPa West 22.2 km/h 22.2 km/h 44 % 0.0 mm 213.0 W/m2 SCT
10:12 -0.3 °C -11.1 °C 1025.6 hPa West 24.1 km/h 24.1 km/h 44 % 0.0 mm 216.0 W/m2 SCT
10:17 -0.2 °C -11.0 °C 1025.6 hPa WNW 18.5 km/h 18.5 km/h 44 % 0.0 mm 244.0 W/m2 SCT
10:22 -0.1 °C -10.9 °C 1025.3 hPa WNW 22.2 km/h 22.2 km/h 44 % 0.0 mm 257.0 W/m2 SCT
10:27 0.0 °C -10.6 °C 1025.3 hPa WNW 25.9 km/h 25.9 km/h 45 % 0.0 mm 272.0 W/m2 SCT
10:32 0.1 °C -11.1 °C 1025.3 hPa WNW 20.4 km/h 20.4 km/h 43 % 0.0 mm 283.0 W/m2 SCT
10:37 0.3 °C -10.8 °C 1025.3 hPa West 18.5 km/h 18.5 km/h 43 % 0.0 mm 294.0 W/m2 SCT
10:42 0.3 °C -11.4 °C 1025.3 hPa West 24.1 km/h 24.1 km/h 41 % 0.0 mm 304.0 W/m2 SCT
10:47 0.4 °C -11.1 °C 1025.3 hPa West 27.8 km/h 27.8 km/h 42 % 0.0 mm 316.0 W/m2 FEW
10:52 0.4 °C -11.1 °C 1025.3 hPa West 24.1 km/h 24.1 km/h 42 % 0.0 mm 325.0 W/m2 FEW
10:57 0.6 °C -10.6 °C 1025.6 hPa West 20.9 km/h 20.9 km/h 43 % 0.0 mm 334.0 W/m2 FEW
11:02 0.6 °C -10.6 °C 1025.6 hPa WNW 24.1 km/h 24.1 km/h 43 % 0.0 mm 345.0 W/m2 FEW
11:07 0.8 °C -10.4 °C 1025.6 hPa WNW 22.2 km/h 22.2 km/h 43 % 0.0 mm 353.0 W/m2 FEW
11:12 1.0 °C -10.5 °C 1025.6 hPa West 20.9 km/h 20.9 km/h 42 % 0.0 mm 364.0 W/m2 FEW
11:17 1.1 °C -10.4 °C 1025.6 hPa WNW 20.4 km/h 20.4 km/h 42 % 0.0 mm 371.0 W/m2 FEW
11:22 1.2 °C -10.3 °C 1025.6 hPa NW 18.5 km/h 18.5 km/h 42 % 0.0 mm 380.0 W/m2 FEW
11:27 1.2 °C -10.7 °C 1025.6 hPa WNW 27.8 km/h 27.8 km/h 41 % 0.0 mm 388.0 W/m2 FEW
11:32 1.2 °C -10.3 °C 1025.6 hPa WNW 17.7 km/h 17.7 km/h 42 % 0.0 mm 397.0 W/m2 FEW
11:37 1.4 °C -10.4 °C 1025.6 hPa WNW 24.1 km/h 24.1 km/h 41 % 0.0 mm 404.0 W/m2 FEW
11:42 1.4 °C -10.4 °C 1025.6 hPa WNW 29.6 km/h 29.6 km/h 41 % 0.0 mm 411.0 W/m2 FEW
11:47 1.4 °C -10.2 °C 1025.3 hPa West 24.1 km/h 24.1 km/h 42 % 0.0 mm 417.0 W/m2 FEW
11:52 1.6 °C -9.9 °C 1025.3 hPa West 29.0 km/h 29.0 km/h 42 % 0.0 mm 424.0 W/m2 FEW
11:57 1.6 °C -10.0 °C 1025.3 hPa WNW 29.6 km/h 29.6 km/h 42 % 0.0 mm 429.0 W/m2 CLR
12:02 1.6 °C -10.0 °C 1025.3 hPa WNW 31.5 km/h 31.5 km/h 42 % 0.0 mm 436.0 W/m2 CLR
12:07 1.6 °C -9.9 °C 1025.3 hPa NW 22.2 km/h 22.2 km/h 42 % 0.0 mm 439.0 W/m2 CLR
12:12 1.7 °C -9.8 °C 1024.9 hPa WNW 27.8 km/h 27.8 km/h 42 % 0.0 mm 445.0 W/m2 CLR
12:17 1.9 °C -9.7 °C 1024.9 hPa WNW 25.7 km/h 25.7 km/h 42 % 0.0 mm 450.0 W/m2 CLR
12:22 1.9 °C -9.7 °C 1024.9 hPa WNW 24.1 km/h 24.1 km/h 42 % 0.0 mm 452.0 W/m2 CLR
12:27 1.8 °C -9.4 °C 1024.9 hPa West 31.5 km/h 31.5 km/h 43 % 0.0 mm 455.0 W/m2 CLR
12:32 1.8 °C -9.4 °C 1024.9 hPa West 29.6 km/h 29.6 km/h 43 % 0.0 mm 459.0 W/m2 CLR
12:37 2.1 °C -8.9 °C 1024.9 hPa WNW 25.9 km/h 25.9 km/h 44 % 0.0 mm 461.0 W/m2 CLR
12:42 2.0 °C -9.0 °C 1024.9 hPa WNW 27.8 km/h 27.8 km/h 44 % 0.0 mm 462.0 W/m2 CLR
12:47 1.8 °C -9.2 °C 1024.9 hPa WNW 18.5 km/h 18.5 km/h 44 % 0.0 mm 464.0 W/m2 CLR
12:52 2.3 °C -8.4 °C 1024.9 hPa WNW 18.5 km/h 18.5 km/h 45 % 0.0 mm 466.0 W/m2 CLR
12:57 2.6 °C -8.2 °C 1024.9 hPa NW 27.8 km/h 27.8 km/h 45 % 0.0 mm 468.0 W/m2 CLR
13:02 2.5 °C -8.6 °C 1024.9 hPa NW 31.5 km/h 31.5 km/h 44 % 0.0 mm 469.0 W/m2 CLR
13:07 2.5 °C -8.3 °C 1024.9 hPa NW 24.1 km/h 24.1 km/h 45 % 0.0 mm 469.0 W/m2 CLR
13:12 2.4 °C -8.1 °C 1024.9 hPa NW 24.1 km/h 24.1 km/h 46 % 0.0 mm 471.0 W/m2 CLR
13:17 2.3 °C -8.2 °C 1024.9 hPa NW 24.1 km/h 24.1 km/h 46 % 0.0 mm 450.0 W/m2 CLR
13:22 2.4 °C -7.7 °C 1024.6 hPa NW 18.5 km/h 18.5 km/h 47 % 0.0 mm 471.0 W/m2 CLR
13:27 2.6 °C -7.9 °C 1024.6 hPa NW 24.1 km/h 24.1 km/h 46 % 0.0 mm 480.0 W/m2 CLR
13:32 2.6 °C -7.9 °C 1024.6 hPa NW 24.1 km/h 24.1 km/h 46 % 0.0 mm 489.0 W/m2 CLR
13:37 2.7 °C -7.5 °C 1024.6 hPa NW 27.8 km/h 27.8 km/h 47 % 0.0 mm 501.0 W/m2 CLR
13:42 2.8 °C -7.4 °C 1024.6 hPa WNW 20.4 km/h 20.4 km/h 47 % 0.0 mm 436.0 W/m2 CLR
13:47 2.7 °C -7.6 °C 1024.6 hPa WNW 18.5 km/h 18.5 km/h 47 % 0.0 mm 424.0 W/m2 CLR
13:52 2.7 °C -7.2 °C 1024.3 hPa WNW 16.7 km/h 16.7 km/h 48 % 0.0 mm 448.0 W/m2 CLR
13:57 2.8 °C -7.1 °C 1024.3 hPa WNW 19.3 km/h 19.3 km/h 48 % 0.0 mm 427.0 W/m2 CLR
14:02 2.9 °C -7.0 °C 1024.3 hPa NW 25.9 km/h 25.9 km/h 48 % 0.0 mm 411.0 W/m2 CLR
14:07 2.9 °C -7.0 °C 1024.3 hPa NW 20.4 km/h 20.4 km/h 48 % 0.0 mm 343.0 W/m2 CLR
14:12 3.0 °C -6.9 °C 1024.3 hPa NW 27.8 km/h 27.8 km/h 48 % 0.0 mm 422.0 W/m2 CLR
14:17 2.7 °C -6.9 °C 1024.3 hPa NW 18.5 km/h 18.5 km/h 49 % 0.0 mm 454.0 W/m2 FEW
14:22 3.0 °C -6.7 °C 1024.3 hPa NW 24.1 km/h 24.1 km/h 49 % 0.0 mm 404.0 W/m2 FEW
14:27 3.1 °C -6.8 °C 1024.3 hPa NW 24.1 km/h 24.1 km/h 48 % 0.0 mm 388.0 W/m2 CLR
14:32 3.1 °C -6.8 °C 1024.3 hPa NW 18.5 km/h 18.5 km/h 48 % 0.0 mm 403.0 W/m2 FEW
14:37 3.1 °C -6.9 °C 1024.3 hPa NW 14.8 km/h 14.8 km/h 48 % 0.0 mm 429.0 W/m2 CLR
14:42 3.1 °C -6.3 °C 1024.3 hPa NW 13.0 km/h 13.0 km/h 50 % 0.0 mm 374.0 W/m2 CLR
14:47 3.1 °C -6.3 °C 1024.3 hPa NNW 14.8 km/h 14.8 km/h 50 % 0.0 mm 207.0 W/m2 CLR
14:52 2.9 °C -6.6 °C 1024.3 hPa NNW 18.5 km/h 18.5 km/h 50 % 0.0 mm 316.0 W/m2 SCT
14:57 2.9 °C -6.3 °C 1024.3 hPa NW 11.3 km/h 11.3 km/h 51 % 0.0 mm 374.0 W/m2 FEW
15:02 3.0 °C -6.2 °C 1024.3 hPa NW 18.5 km/h 18.5 km/h 51 % 0.0 mm 281.0 W/m2 CLR
15:07 3.0 °C -6.2 °C 1024.3 hPa NW 13.0 km/h 13.0 km/h 51 % 0.0 mm 292.0 W/m2 CLR
15:12 2.9 °C -6.2 °C 1024.3 hPa WNW 14.8 km/h 14.8 km/h 51 % 0.0 mm 315.0 W/m2 FEW
15:18 3.0 °C -6.2 °C 1024.3 hPa NW 16.1 km/h 16.1 km/h 51 % 0.0 mm 302.0 W/m2 CLR
15:23 3.0 °C -5.9 °C 1024.3 hPa NW 13.0 km/h 13.0 km/h 52 % 0.0 mm 229.0 W/m2 CLR
15:28 3.0 °C -5.9 °C 1024.3 hPa WNW 13.0 km/h 13.0 km/h 52 % 0.0 mm 227.0 W/m2 FEW
15:33 3.1 °C -5.8 °C 1024.3 hPa WNW 16.1 km/h 16.1 km/h 52 % 0.0 mm 251.0 W/m2 SCT
15:38 3.1 °C -6.1 °C 1024.3 hPa WNW 11.1 km/h 11.1 km/h 51 % 0.0 mm 250.0 W/m2 FEW
15:43 3.2 °C -6.0 °C 1024.3 hPa NW 11.3 km/h 11.3 km/h 51 % 0.0 mm 274.0 W/m2 CLR
15:48 3.4 °C -5.8 °C 1024.3 hPa NW 20.9 km/h 20.9 km/h 51 % 0.0 mm 272.0 W/m2 CLR
15:53 3.4 °C -6.1 °C 1024.3 hPa WNW 16.7 km/h 16.7 km/h 50 % 0.0 mm 274.0 W/m2 CLR
15:58 3.4 °C -6.0 °C 1024.3 hPa WNW 14.8 km/h 14.8 km/h 50 % 0.0 mm 264.0 W/m2 CLR
16:03 3.5 °C -5.9 °C 1024.3 hPa WNW 16.7 km/h 16.7 km/h 50 % 0.0 mm 253.0 W/m2 CLR
16:08 3.4 °C -6.0 °C 1024.3 hPa WNW 18.5 km/h 18.5 km/h 50 % 0.0 mm 237.0 W/m2 CLR
16:13 3.6 °C -5.9 °C 1024.3 hPa WNW 16.7 km/h 16.7 km/h 50 % 0.0 mm 223.0 W/m2 CLR
16:18 3.5 °C -6.2 °C 1024.6 hPa WNW 18.5 km/h 18.5 km/h 49 % 0.0 mm 209.0 W/m2 CLR
16:23 3.5 °C -5.9 °C 1024.3 hPa WNW 18.5 km/h 18.5 km/h 50 % 0.0 mm 197.0 W/m2 CLR
16:28 3.5 °C -5.9 °C 1024.3 hPa WNW 11.1 km/h 11.1 km/h 50 % 0.0 mm 179.0 W/m2 CLR
16:33 3.6 °C -6.2 °C 1024.3 hPa West 16.7 km/h 16.7 km/h 49 % 0.0 mm 165.0 W/m2 CLR
16:38 3.4 °C -6.3 °C 1024.3 hPa West 16.7 km/h 16.7 km/h 49 % 0.0 mm 151.0 W/m2 CLR
16:43 3.4 °C -6.3 °C 1024.3 hPa West 20.4 km/h 20.4 km/h 49 % 0.0 mm 137.0 W/m2 CLR
16:48 3.3 °C -6.4 °C 1024.6 hPa WNW 16.7 km/h 16.7 km/h 49 % 0.0 mm 120.0 W/m2 CLR
16:53 3.2 °C -6.5 °C 1024.3 hPa WNW 18.5 km/h 18.5 km/h 49 % 0.0 mm 107.0 W/m2 CLR
16:58 3.1 °C -6.6 °C 1024.6 hPa NW 16.1 km/h 16.1 km/h 49 % 0.0 mm 95.0 W/m2 CLR
17:04 3.1 °C -6.3 °C 1024.6 hPa WNW 18.5 km/h 18.5 km/h 50 % 0.0 mm 63.0 W/m2 CLR
17:15 3.1 °C -6.4 °C 1024.6 hPa WNW 8.0 km/h 8.4 km/h 50 % 0.0 mm 53.0 W/m2 OVC
17:20 2.9 °C -6.2 °C 1024.6 hPa WNW 9.3 km/h 10.3 km/h 51 % 0.0 mm 44.0 W/m2 OVC
17:25 2.8 °C -6.4 °C 1024.9 hPa WNW 9.3 km/h 9.3 km/h 51 % 0.0 mm 33.0 W/m2 OVC
17:30 2.7 °C -6.5 °C 1024.9 hPa WNW 9.3 km/h 9.3 km/h 51 % 0.0 mm 26.0 W/m2 OVC
17:35 2.6 °C -6.3 °C 1024.9 hPa NW 5.6 km/h 5.6 km/h 52 % 0.0 mm 19.0 W/m2 OVC
17:40 2.4 °C -6.4 °C 1024.9 hPa WNW 5.6 km/h   52 % 0.0 mm 16.0 W/m2 OVC
17:45 2.3 °C -6.6 °C 1024.9 hPa WNW 5.6 km/h 5.6 km/h 52 % 0.0 mm 12.0 W/m2 OVC
17:50 2.2 °C -6.4 °C 1024.9 hPa West 9.3 km/h 9.3 km/h 53 % 0.0 mm 11.0 W/m2 OVC
17:55 2.1 °C -6.5 °C 1024.9 hPa West 5.6 km/h 5.6 km/h 53 % 0.0 mm 7.0 W/m2 OVC
18:00 2.0 °C -6.3 °C 1024.9 hPa West 5.6 km/h 5.6 km/h 54 % 0.0 mm 5.0 W/m2 OVC
18:05 1.7 °C -6.4 °C 1025.3 hPa WNW 5.6 km/h 5.6 km/h 55 % 0.0 mm 0.0 W/m2 CLR
18:10 1.4 °C -6.4 °C 1025.3 hPa WNW 5.6 km/h 5.6 km/h 56 % 0.0 mm 0.0 W/m2 CLR
18:15 1.1 °C -6.8 °C 1025.3 hPa WNW 5.6 km/h 5.6 km/h 56 % 0.0 mm 0.0 W/m2 CLR
18:20 0.9 °C -6.6 °C 1025.3 hPa WNW 5.6 km/h 5.6 km/h 57 % 0.0 mm 0.0 W/m2 CLR
19:00 -0.1 °C -6.9 °C 1026.0 hPa Calm     60 % 0.0 mm 0.0 W/m2 CLR
19:05 -0.3 °C -6.7 °C 1026.0 hPa Calm     62 % 0.0 mm 0.0 W/m2 CLR
19:10 -0.4 °C -6.8 °C 1026.3 hPa Calm     62 % 0.0 mm 0.0 W/m2 CLR
19:15 -0.6 °C -6.7 °C 1026.0 hPa West 3.7 km/h 3.7 km/h 63 % 0.0 mm 0.0 W/m2 CLR
19:20 -0.6 °C -6.6 °C 1026.3 hPa West 13.0 km/h 13.0 km/h 64 % 0.0 mm 0.0 W/m2 CLR
19:25 -0.4 °C -6.6 °C 1026.3 hPa WSW 11.3 km/h 11.3 km/h 63 % 0.0 mm 0.0 W/m2 CLR
19:30 -0.3 °C -6.5 °C 1026.3 hPa West 9.3 km/h 9.3 km/h 63 % 0.0 mm 0.0 W/m2 CLR
19:35 -0.1 °C -6.3 °C 1026.3 hPa West 13.0 km/h 13.0 km/h 63 % 0.0 mm 0.0 W/m2 CLR
19:40 0.1 °C -5.9 °C 1026.3 hPa West 13.0 km/h 13.0 km/h 64 % 0.0 mm 0.0 W/m2 CLR
19:45 0.1 °C -5.9 °C 1026.3 hPa WNW 9.7 km/h 9.7 km/h 64 % 0.0 mm 0.0 W/m2 CLR
19:50 0.1 °C -5.9 °C 1026.6 hPa WNW 8.0 km/h 8.0 km/h 64 % 0.0 mm 0.0 W/m2 CLR
19:56 0.0 °C -5.8 °C 1026.6 hPa WNW 7.4 km/h 7.4 km/h 65 % 0.0 mm 0.0 W/m2 CLR
20:01 0.0 °C -5.8 °C 1026.6 hPa West 5.6 km/h 5.6 km/h 65 % 0.0 mm 0.0 W/m2 CLR
20:05 -0.2 °C -6.0 °C 1026.6 hPa West 5.6 km/h 5.6 km/h 65 % 0.0 mm 0.0 W/m2 CLR
20:11 -0.4 °C -6.0 °C 1026.6 hPa West 3.7 km/h   66 % 0.0 mm 0.0 W/m2 CLR
20:16 -0.7 °C -5.8 °C 1026.6 hPa West 7.4 km/h 7.4 km/h 68 % 0.0 mm 0.0 W/m2 CLR
20:21 -0.6 °C -5.6 °C 1026.6 hPa West 9.3 km/h 9.3 km/h 69 % 0.0 mm 0.0 W/m2 CLR
20:26 -0.4 °C -5.4 °C 1026.6 hPa WNW 5.6 km/h 5.6 km/h 69 % 0.0 mm 0.0 W/m2 CLR
20:31 -0.5 °C -5.5 °C 1026.6 hPa West 3.7 km/h 3.7 km/h 69 % 0.0 mm 0.0 W/m2 CLR
20:36 -0.6 °C -5.6 °C 1027.0 hPa Calm     69 % 0.0 mm 0.0 W/m2 CLR
20:41 -0.7 °C -5.7 °C 1026.6 hPa Calm     69 % 0.0 mm 0.0 W/m2 CLR
20:46 -0.9 °C -5.7 °C 1027.0 hPa Calm     70 % 0.0 mm 0.0 W/m2 CLR
20:51 -1.1 °C -5.9 °C 1027.0 hPa Calm     70 % 0.0 mm 0.0 W/m2 CLR
20:56 -1.3 °C -5.9 °C 1027.0 hPa Calm     71 % 0.0 mm 0.0 W/m2 CLR
21:01 -1.4 °C -5.8 °C 1027.0 hPa Calm   0.8 km/h 72 % 0.0 mm 0.0 W/m2 CLR
21:06 -1.4 °C -5.7 °C 1027.0 hPa West 5.6 km/h 5.6 km/h 73 % 0.0 mm 0.0 W/m2 CLR
21:11 -1.3 °C -5.5 °C 1027.0 hPa West 5.6 km/h 5.6 km/h 73 % 0.0 mm 0.0 W/m2 CLR
21:16 -1.2 °C -5.4 °C 1027.0 hPa West 5.6 km/h 5.6 km/h 73 % 0.0 mm 0.0 W/m2 CLR
21:21 -1.4 °C -5.8 °C 1027.0 hPa WSW 3.7 km/h 3.7 km/h 72 % 0.0 mm 0.0 W/m2 CLR
21:26 -1.7 °C -5.9 °C 1027.0 hPa WSW 5.6 km/h 5.6 km/h 73 % 0.0 mm 0.0 W/m2 CLR
21:31 -1.9 °C -5.9 °C 1027.0 hPa WSW 9.3 km/h 9.3 km/h 74 % 0.0 mm 0.0 W/m2 CLR
21:36 -1.9 °C -5.8 °C 1027.0 hPa WSW 7.4 km/h 7.4 km/h 75 % 0.0 mm 0.0 W/m2 CLR
21:41 -2.0 °C -5.8 °C 1027.0 hPa WSW 6.4 km/h 6.4 km/h 75 % 0.0 mm 0.0 W/m2 CLR
21:46 -2.0 °C -5.8 °C 1027.0 hPa WSW 9.3 km/h 9.3 km/h 75 % 0.0 mm 0.0 W/m2 CLR
21:51 -2.1 °C -5.9 °C 1027.0 hPa WSW 9.3 km/h 9.3 km/h 75 % 0.0 mm 0.0 W/m2 CLR
21:56 -2.1 °C -5.7 °C 1027.0 hPa WSW 11.1 km/h 11.1 km/h 76 % 0.0 mm 0.0 W/m2 CLR
22:01 -2.0 °C -5.7 °C 1027.0 hPa WSW 9.7 km/h 9.7 km/h 76 % 0.0 mm 0.0 W/m2 CLR
22:06 -2.0 °C -5.7 °C 1027.0 hPa WSW 9.3 km/h 9.3 km/h 76 % 0.0 mm 0.0 W/m2 CLR
22:11 -2.0 °C -5.7 °C 1027.0 hPa WSW 11.1 km/h 11.1 km/h 76 % 0.0 mm 0.0 W/m2 CLR
22:16 -2.1 °C -5.8 °C 1027.0 hPa WSW 11.1 km/h 11.1 km/h 76 % 0.0 mm 0.0 W/m2 CLR
22:21 -2.1 °C -5.8 °C 1027.0 hPa WSW 9.3 km/h 9.3 km/h 76 % 0.0 mm 0.0 W/m2 CLR
22:26 -2.2 °C -5.8 °C 1027.0 hPa WSW 11.1 km/h 11.1 km/h 76 % 0.0 mm 0.0 W/m2 CLR
22:32 -2.2 °C -5.8 °C 1027.0 hPa WSW 5.6 km/h 5.6 km/h 76 % 0.0 mm 0.0 W/m2 CLR
22:37 -2.3 °C -5.9 °C 1027.0 hPa WSW 1.6 km/h 1.6 km/h 76 % 0.0 mm 0.0 W/m2 CLR
22:42 -2.7 °C -6.3 °C 1027.0 hPa Calm     76 % 0.0 mm 0.0 W/m2 CLR
22:47 -2.9 °C -6.3 °C 1027.0 hPa Calm     77 % 0.0 mm 0.0 W/m2 CLR
22:52 -2.9 °C -6.2 °C 1027.0 hPa WSW 1.6 km/h 1.6 km/h 78 % 0.0 mm 0.0 W/m2 CLR
22:57 -3.2 °C -6.4 °C 1027.0 hPa WSW 6.4 km/h 6.4 km/h 78 % 0.0 mm 0.0 W/m2 CLR
23:02 -3.1 °C -6.1 °C 1027.0 hPa WSW 9.3 km/h 9.3 km/h 80 % 0.0 mm 0.0 W/m2 CLR
23:07 -2.9 °C -5.9 °C 1027.0 hPa WSW 9.3 km/h 9.3 km/h 80 % 0.0 mm 0.0 W/m2 CLR
23:12 -2.8 °C -5.9 °C 1027.0 hPa SW 11.1 km/h 11.1 km/h 79 % 0.0 mm 0.0 W/m2 CLR
23:17 -2.6 °C -5.8 °C 1027.0 hPa WSW 5.6 km/h 5.6 km/h 79 % 0.0 mm 0.0 W/m2 CLR
23:22 -2.6 °C -5.9 °C 1027.0 hPa Calm     78 % 0.0 mm 0.0 W/m2 CLR
23:27 -2.8 °C -6.1 °C 1027.3 hPa SSW 9.3 km/h 9.3 km/h 78 % 0.0 mm 0.0 W/m2 CLR
23:32 -2.6 °C -5.8 °C 1027.3 hPa SW 11.1 km/h 11.1 km/h 79 % 0.0 mm 0.0 W/m2 CLR
23:37 -2.5 °C -5.8 °C 1027.3 hPa WSW 9.7 km/h 9.7 km/h 78 % 0.0 mm 0.0 W/m2 CLR
23:42 -2.3 °C -5.6 °C 1027.3 hPa WSW 8.0 km/h 8.0 km/h 78 % 0.0 mm 0.0 W/m2 CLR
23:47 -2.3 °C -5.8 °C 1027.0 hPa WSW 9.3 km/h 9.3 km/h 77 % 0.0 mm 0.0 W/m2 CLR
23:52 -2.2 °C -5.7 °C 1027.0 hPa WSW 9.3 km/h 9.3 km/h 77 % 0.0 mm 0.0 W/m2 CLR
23:57 -2.1 °C -5.6 °C 1027.3 hPa WSW 8.0 km/h 8.0 km/h 77 % 0.0 mm 0.0 W/m2 CLR
Lo Temps de Massalio
Compliments of Weather Underground - 1.25 mb